Time;durP1;ratioP1;P1;durP2;ratioP2;P2;SDS_P1;SDS_P2;PMS_P1;PMS_P2;Temp;Humidity;BMP_temperature;BMP_pressure;BME280_temperature;BME280_humidity;BME280_pressure;Samples;Min_cycle;Max_cycle;Signal;HPM_P1;HPM_P2
2020/12/30 00:02:47;;;;;;;1.23;1.10;;;;;;;5.40;65.83;93676.25;6970413;28;20238;-77
2020/12/30 00:06:08;;;;;;;1.10;1.00;;;;;;;5.44;65.90;93674.13;6981808;28;20280;-78
2020/12/30 00:09:31;;;;;;;1.67;1.20;;;;;;;5.43;65.53;93683.03;6991721;28;20222;-77
2020/12/30 00:12:51;;;;;;;1.37;0.90;;;;;;;5.46;65.28;93685.38;6978677;28;20225;-77
2020/12/30 00:16:14;;;;;;;2.17;1.00;;;;;;;5.53;65.05;93681.19;6999588;28;20321;-77
2020/12/30 00:19:34;;;;;;;1.50;1.07;;;;;;;5.51;64.90;93675.22;7009624;28;20217;-76
2020/12/30 00:22:57;;;;;;;2.33;1.00;;;;;;;5.50;65.15;93669.13;6978671;28;20284;-77
2020/12/30 00:26:19;;;;;;;3.40;2.37;;;;;;;5.43;65.06;93661.97;6995280;28;20280;-77
2020/12/30 00:29:42;;;;;;;4.07;3.30;;;;;;;5.33;65.41;93672.50;6990918;28;20215;-78
2020/12/30 00:33:02;;;;;;;3.13;1.83;;;;;;;5.31;65.60;93676.28;6998230;28;20222;-77
2020/12/30 00:36:24;;;;;;;1.43;1.30;;;;;;;5.30;65.43;93685.97;6976195;28;20211;-76
2020/12/30 00:39:47;;;;;;;2.20;1.07;;;;;;;5.29;65.71;93680.84;7004162;28;20237;-77
2020/12/30 00:43:08;;;;;;;1.53;0.90;;;;;;;5.27;65.56;93678.38;6994645;28;20311;-77
2020/12/30 00:46:30;;;;;;;0.80;0.80;;;;;;;5.33;65.86;93685.66;7010674;28;20227;-78
2020/12/30 00:49:53;;;;;;;1.80;0.93;;;;;;;5.41;65.70;93692.88;7002997;28;20219;-77
2020/12/30 00:53:14;;;;;;;0.90;0.83;;;;;;;5.50;65.39;93690.19;6997515;28;20223;-77
2020/12/30 00:56:34;;;;;;;1.00;0.80;;;;;;;5.54;65.05;93706.53;7000532;28;20278;-77
2020/12/30 00:59:54;;;;;;;0.73;0.73;;;;;;;5.60;65.13;93713.84;7002592;28;20211;-77
2020/12/30 01:03:15;;;;;;;0.70;0.70;;;;;;;5.60;65.16;93719.94;6988701;28;20226;-77
2020/12/30 01:06:36;;;;;;;0.70;0.70;;;;;;;5.59;64.94;93717.47;6998462;28;20211;-78
2020/12/30 01:09:58;;;;;;;0.73;0.73;;;;;;;5.59;65.20;93713.03;6982652;28;20222;-77
2020/12/30 01:13:19;;;;;;;1.43;0.80;;;;;;;5.54;64.86;93719.69;7005407;28;20215;-77
2020/12/30 01:16:39;;;;;;;1.00;0.80;;;;;;;5.40;64.51;93733.31;7016292;28;20214;-75
2020/12/30 01:19:59;;;;;;;0.80;0.80;;;;;;;5.36;65.10;93732.78;7004318;28;20219;-77
2020/12/30 01:23:22;;;;;;;1.10;1.00;;;;;;;5.32;65.12;93731.41;6982175;28;20231;-77
2020/12/30 01:26:44;;;;;;;1.00;0.80;;;;;;;5.27;65.22;93738.06;6997937;28;20238;-78
2020/12/30 01:30:04;;;;;;;1.57;0.90;;;;;;;5.25;65.08;93732.94;6975139;28;20295;-77
2020/12/30 01:33:25;;;;;;;0.90;0.90;;;;;;;5.19;65.21;93738.75;7004602;28;20230;-77
2020/12/30 01:36:51;;;;;;;13.20;1.60;;;;;;;5.10;65.13;93740.44;7013771;28;20241;-77
2020/12/30 01:40:12;;;;;;;2.70;1.90;;;;;;;5.05;65.51;93739.19;6985084;28;20216;-74
2020/12/30 01:43:32;;;;;;;1.67;1.57;;;;;;;5.06;66.01;93741.69;6989608;28;20225;-77
2020/12/30 01:46:53;;;;;;;1.20;1.10;;;;;;;5.10;65.93;93742.22;7010178;28;20214;-76
2020/12/30 01:50:16;;;;;;;1.50;1.40;;;;;;;5.07;65.74;93745.16;6993953;28;20247;-77
2020/12/30 01:53:37;;;;;;;1.33;1.23;;;;;;;5.04;66.20;93740.16;7007964;28;20743;-76
2020/12/30 01:57:00;;;;;;;1.43;1.30;;;;;;;5.06;66.19;93739.06;7004849;28;20714;-77
2020/12/30 02:00:21;;;;;;;1.37;1.13;;;;;;;5.11;66.07;93736.84;6991484;28;20231;-77
2020/12/30 02:03:42;;;;;;;1.30;1.20;;;;;;;5.09;66.07;93738.75;6994879;28;20335;-76
2020/12/30 02:07:08;;;;;;;0.90;0.87;;;;;;;5.13;66.27;93732.25;6991442;28;20223;-78
2020/12/30 02:10:28;;;;;;;0.60;0.60;;;;;;;5.12;65.74;93735.03;7009495;28;20285;-77
2020/12/30 02:13:51;;;;;;;0.80;0.80;;;;;;;5.10;66.13;93732.53;7009865;28;20222;-77
2020/12/30 02:17:20;;;;;;;0.80;0.70;;;;;;;5.12;65.96;93749.03;6988674;28;20218;-76
2020/12/30 02:20:40;;;;;;;0.70;0.70;;;;;;;5.12;66.11;93756.09;7007868;28;20220;-77
2020/12/30 02:24:03;;;;;;;0.63;0.63;;;;;;;5.08;66.06;93754.72;6999172;28;20241;-77
2020/12/30 02:27:23;;;;;;;0.70;0.70;;;;;;;5.02;65.77;93756.09;7017605;28;20224;-77
2020/12/30 02:30:46;;;;;;;0.70;0.70;;;;;;;4.93;66.01;93756.91;6996505;28;20212;-77
2020/12/30 02:34:06;;;;;;;0.60;0.60;;;;;;;4.85;65.77;93758.56;7004340;28;20578;-78
2020/12/30 02:37:27;;;;;;;1.07;0.60;;;;;;;4.75;65.92;93750.69;6986714;28;20213;-77
2020/12/30 02:40:49;;;;;;;0.50;0.50;;;;;;;4.65;65.87;93748.06;6996541;28;20359;-77
2020/12/30 02:44:12;;;;;;;0.60;0.60;;;;;;;4.56;65.99;93764.66;6977860;28;20213;-78
2020/12/30 02:47:32;;;;;;;0.70;0.70;;;;;;;4.52;66.22;93757.19;6983806;28;20214;-77
2020/12/30 02:50:53;;;;;;;0.70;0.70;;;;;;;4.49;66.69;93760.06;7002929;28;20218;-77
2020/12/30 02:54:14;;;;;;;2.30;0.70;;;;;;;4.40;66.58;93766.13;7018556;28;20822;-77
2020/12/30 02:57:34;;;;;;;0.70;0.70;;;;;;;4.33;66.29;93761.41;6981241;28;20205;-77
2020/12/30 03:00:57;;;;;;;1.00;0.70;;;;;;;4.32;66.41;93759.75;7024105;28;20226;-77
2020/12/30 03:04:17;;;;;;;0.60;0.60;;;;;;;4.33;66.71;93761.41;7002783;28;20710;-77
2020/12/30 03:07:38;;;;;;;0.77;0.77;;;;;;;4.36;66.67;93770.00;6999170;28;20216;-77
2020/12/30 03:11:00;;;;;;;0.73;0.73;;;;;;;4.35;66.69;93769.19;6995356;28;20209;-77
2020/12/30 03:14:20;;;;;;;0.70;0.70;;;;;;;4.48;67.01;93769.75;6992020;28;20227;-77
2020/12/30 03:17:40;;;;;;;1.57;0.90;;;;;;;4.63;67.07;93771.00;6985842;28;20214;-78
2020/12/30 03:21:05;;;;;;;1.33;0.83;;;;;;;4.77;66.39;93774.22;7007541;28;20210;-77
2020/12/30 03:24:28;;;;;;;0.67;0.67;;;;;;;4.88;65.99;93769.63;7012112;28;20218;-77
2020/12/30 03:27:51;;;;;;;0.77;0.77;;;;;;;4.94;66.29;93774.34;7017705;28;20228;-77
2020/12/30 03:31:11;;;;;;;0.80;0.80;;;;;;;4.90;65.63;93770.34;7006265;28;20223;-77
2020/12/30 03:34:32;;;;;;;1.63;1.00;;;;;;;4.75;65.64;93767.28;7014728;28;20218;-78
2020/12/30 03:37:55;;;;;;;1.03;0.70;;;;;;;4.64;65.88;93771.84;7006800;28;20219;-77
2020/12/30 03:41:18;;;;;;;0.80;0.80;;;;;;;4.57;66.45;93774.22;7006661;28;20211;-77
2020/12/30 03:44:38;;;;;;;0.93;0.70;;;;;;;4.57;65.82;93771.56;7034063;28;20221;-77
2020/12/30 03:48:01;;;;;;;2.63;0.90;;;;;;;4.60;66.39;93773.09;7002179;28;20222;-77
2020/12/30 03:51:24;;;;;;;1.33;1.00;;;;;;;4.67;66.21;93771.59;7004115;28;20293;-76
2020/12/30 03:54:44;;;;;;;0.87;0.80;;;;;;;4.72;65.84;93779.91;7021672;28;20644;-77
2020/12/30 03:58:04;;;;;;;2.37;0.87;;;;;;;4.68;66.04;93770.59;7003246;28;20201;-77
2020/12/30 04:01:27;;;;;;;1.13;0.80;;;;;;;4.73;66.16;93771.00;7031647;28;20221;-77
2020/12/30 04:04:47;;;;;;;1.53;0.90;;;;;;;4.75;65.56;93763.84;6987591;28;20225;-77
2020/12/30 04:08:08;;;;;;;4.53;0.83;;;;;;;4.74;65.73;93770.88;6995776;28;20674;-77
2020/12/30 04:11:30;;;;;;;2.40;0.87;;;;;;;4.73;65.90;93779.75;7002005;28;20722;-77
2020/12/30 04:14:53;;;;;;;1.00;0.70;;;;;;;4.71;65.85;93783.50;7008926;28;20239;-75
2020/12/30 04:18:13;;;;;;;2.40;1.10;;;;;;;4.68;65.51;93778.47;6983574;28;20265;-77
2020/12/30 04:21:34;;;;;;;2.07;1.20;;;;;;;4.63;65.62;93778.91;7031997;27;20239;-77
2020/12/30 04:24:54;;;;;;;1.10;0.70;;;;;;;4.59;65.80;93780.16;7012086;28;20751;-77
2020/12/30 04:28:17;;;;;;;1.70;0.90;;;;;;;4.58;66.29;93786.34;7010441;28;20245;-77
2020/12/30 04:31:38;;;;;;;2.50;0.90;;;;;;;4.51;65.78;93785.25;7013003;28;20213;-77
2020/12/30 04:34:58;;;;;;;5.20;2.03;;;;;;;4.47;65.82;93788.31;6996846;28;20215;-78
2020/12/30 04:38:21;;;;;;;4.13;1.97;;;;;;;4.47;66.07;93791.75;6989658;28;20829;-77
2020/12/30 04:41:46;;;;;;;1.57;1.40;;;;;;;4.40;66.09;93798.50;6987683;28;21255;-77
2020/12/30 04:45:12;;;;;;;1.27;1.17;;;;;;;4.33;66.45;93792.94;6990678;28;20211;-77
2020/12/30 04:48:35;;;;;;;2.40;1.27;;;;;;;4.33;66.67;93790.31;6997823;28;20215;-77
2020/12/30 04:51:59;;;;;;;2.40;1.10;;;;;;;4.28;66.18;93796.94;7012652;28;20221;-77
2020/12/30 04:55:25;;;;;;;2.30;1.20;;;;;;;4.22;65.98;93808.84;6998111;28;20214;-77
2020/12/30 04:58:46;;;;;;;2.23;1.20;;;;;;;4.21;66.59;93798.47;7004581;28;20221;-78
2020/12/30 05:02:11;;;;;;;2.30;1.60;;;;;;;4.11;66.51;93795.81;7021796;28;20225;-77
2020/12/30 05:05:33;;;;;;;1.77;1.30;;;;;;;4.03;66.61;93803.50;7010186;28;20211;-76
2020/12/30 05:08:55;;;;;;;5.30;1.10;;;;;;;3.94;67.13;93808.72;6993324;28;20482;-78
2020/12/30 05:12:19;;;;;;;1.20;1.10;;;;;;;3.91;67.17;93815.06;7024119;28;20645;-77
2020/12/30 05:15:42;;;;;;;3.07;1.40;;;;;;;3.94;67.37;93814.81;7012604;28;20753;-77
2020/12/30 05:19:04;;;;;;;2.10;1.30;;;;;;;4.02;67.76;93812.38;7000496;28;20217;-76
2020/12/30 05:22:24;;;;;;;2.33;1.27;;;;;;;4.04;67.25;93814.84;6994259;28;20232;-78
2020/12/30 05:25:45;;;;;;;1.30;1.20;;;;;;;4.00;67.01;93823.94;7034044;27;20293;-78
2020/12/30 05:29:05;;;;;;;2.37;1.10;;;;;;;3.97;67.03;93827.69;7013058;28;20224;-78
2020/12/30 05:32:28;;;;;;;1.83;1.60;;;;;;;3.95;67.50;93820.88;7019188;28;20256;-78
2020/12/30 05:35:49;;;;;;;1.27;1.13;;;;;;;3.89;66.99;93833.56;7010974;28;20222;-78
2020/12/30 05:39:36;;;;;;;3.03;1.10;;;;;;;3.83;66.71;93825.38;7042672;28;20295;-78
2020/12/30 05:43:16;;;;;;;2.20;1.10;;;;;;;3.79;67.29;93826.63;7002134;28;20222;-76
2020/12/30 05:46:36;;;;;;;2.93;1.20;;;;;;;3.72;67.12;93833.34;7006615;28;20225;-77
2020/12/30 05:49:57;;;;;;;1.67;1.00;;;;;;;3.62;67.30;93835.91;7023806;28;20766;-78
2020/12/30 05:53:18;;;;;;;6.97;1.37;;;;;;;3.61;67.53;93836.88;7039246;27;20220;-78
2020/12/30 05:56:41;;;;;;;3.20;1.40;;;;;;;3.66;67.54;93844.38;6996459;28;20287;-76
2020/12/30 06:00:06;;;;;;;4.40;1.17;;;;;;;3.73;67.65;93851.59;6995493;27;20218;-78
2020/12/30 06:03:28;;;;;;;429.67;17.10;;;;;;;3.71;67.37;93864.03;7030642;28;20693;-78
2020/12/30 06:06:59;;;;;;;3.33;1.50;;;;;;;3.68;67.21;93871.31;7038671;27;20356;-77
2020/12/30 06:10:21;;;;;;;3.27;1.90;;;;;;;3.76;66.86;93879.38;7006086;28;20224;-77
2020/12/30 06:13:45;;;;;;;3.67;2.10;;;;;;;3.80;67.51;93876.38;7027250;28;20216;-78
2020/12/30 06:17:05;;;;;;;2.87;1.87;;;;;;;3.84;66.87;93883.03;7006800;28;20270;-78
2020/12/30 06:20:36;;;;;;;5.40;1.20;;;;;;;3.83;67.05;93878.72;7007353;28;20217;-77
2020/12/30 06:23:56;;;;;;;1.33;1.00;;;;;;;3.82;66.51;93884.94;7021488;28;20353;-78
2020/12/30 06:27:25;;;;;;;1.67;1.00;;;;;;;3.76;67.12;93888.09;7017881;28;20238;-77
2020/12/30 06:30:49;;;;;;;2.30;1.07;;;;;;;3.76;67.00;93893.34;7020081;27;20286;-78
2020/12/30 06:34:10;;;;;;;2.53;1.33;;;;;;;3.77;66.57;93891.56;7000931;28;20270;-78
2020/12/30 06:37:33;;;;;;;1.57;1.10;;;;;;;3.74;66.50;93897.88;7002410;28;20240;-77
2020/12/30 06:40:57;;;;;;;2.13;1.10;;;;;;;3.73;66.59;93903.25;7028438;27;20242;-77
2020/12/30 06:44:41;;;;;;;2.27;1.00;;;;;;;3.66;66.80;93900.34;7004928;28;20646;-78
2020/12/30 06:48:02;;;;;;;3.77;1.30;;;;;;;3.61;66.85;93905.13;6986107;28;20213;-78
2020/12/30 06:51:23;;;;;;;6.20;1.00;;;;;;;3.60;67.45;93905.25;7005051;28;20297;-77
2020/12/30 06:54:49;;;;;;;4.63;1.23;;;;;;;3.59;67.07;93906.19;7006041;28;20216;-78
2020/12/30 06:58:10;;;;;;;4.17;1.13;;;;;;;3.55;67.03;93910.88;7024697;28;20213;-77
2020/12/30 07:01:56;;;;;;;2.40;0.83;;;;;;;3.52;66.86;93915.56;7016207;28;20271;-76
2020/12/30 07:05:25;;;;;;;4.17;2.40;;;;;;;3.42;66.89;93921.53;7005559;28;20973;-78
2020/12/30 07:08:45;;;;;;;2.50;2.30;;;;;;;3.33;66.73;93917.06;6991716;28;20216;-78
2020/12/30 07:12:10;;;;;;;2.47;1.40;;;;;;;3.26;66.45;93929.03;7021574;27;20217;-78
2020/12/30 07:15:30;;;;;;;17.73;2.10;;;;;;;3.20;66.43;93932.13;7010517;28;20225;-75
2020/12/30 07:18:53;;;;;;;98.07;4.10;;;;;;;3.13;66.42;93928.34;7017762;28;20306;-78
2020/12/30 07:22:14;;;;;;;223.83;7.17;;;;;;;3.10;66.30;93939.09;7028640;28;20254;-77
2020/12/30 07:25:37;;;;;;;30.47;2.80;;;;;;;3.05;66.89;93937.78;7004360;28;20213;-77
2020/12/30 07:28:58;;;;;;;1.47;1.10;;;;;;;3.03;67.13;93943.16;6993653;28;20216;-78
2020/12/30 07:32:19;;;;;;;2.17;1.10;;;;;;;3.01;67.12;93948.53;6993051;28;20680;-74
2020/12/30 07:35:39;;;;;;;1.43;1.10;;;;;;;3.10;67.08;93953.97;6992834;28;20230;-75
2020/12/30 07:39:00;;;;;;;3.27;1.30;;;;;;;3.20;67.27;93953.13;7019406;27;20259;-74
2020/12/30 07:42:26;;;;;;;2.83;1.10;;;;;;;3.27;67.32;93956.91;6994281;28;20291;-75
2020/12/30 07:45:46;;;;;;;2.73;1.30;;;;;;;3.41;67.21;93967.13;6993586;28;20708;-76
2020/12/30 07:49:12;;;;;;;3.87;1.57;;;;;;;3.57;67.34;93971.94;7012202;28;20298;-76
2020/12/30 07:52:33;;;;;;;1.97;1.00;;;;;;;3.73;67.55;93977.59;6995806;28;20260;-74
2020/12/30 07:55:55;;;;;;;1.37;0.93;;;;;;;3.89;67.41;93970.13;6987635;28;20244;-75
2020/12/30 07:59:20;;;;;;;2.67;0.97;;;;;;;4.13;66.90;93983.00;6995622;28;20262;-75
2020/12/30 08:02:41;;;;;;;2.37;1.00;;;;;;;4.33;66.86;93984.78;6998394;28;20212;-75
2020/12/30 08:06:03;;;;;;;2.13;1.30;;;;;;;4.51;66.57;93997.34;7002249;28;20743;-75
2020/12/30 08:09:29;;;;;;;1.50;1.10;;;;;;;4.76;66.10;93991.63;6960092;28;20256;-77
2020/12/30 08:12:49;;;;;;;1.03;0.93;;;;;;;4.88;65.58;94001.09;7007587;28;20703;-79
2020/12/30 08:16:11;;;;;;;1.97;1.17;;;;;;;4.98;65.53;94003.78;7019628;28;20209;-78
2020/12/30 08:19:39;;;;;;;290.37;11.90;;;;;;;4.88;63.58;94019.50;6970239;28;20564;-79
2020/12/30 08:23:03;;;;;;;105.00;5.40;;;;;;;4.74;64.05;94025.13;6988158;28;20222;-75
2020/12/30 08:26:25;;;;;;;244.57;9.70;;;;;;;4.94;64.39;94024.22;6991937;28;20322;-75
2020/12/30 08:29:46;;;;;;;73.17;8.47;;;;;;;5.01;63.77;94033.28;6989047;28;20210;-75
2020/12/30 08:33:10;;;;;;;140.00;7.53;;;;;;;4.99;63.85;94032.56;6983657;28;20223;-76
2020/12/30 08:36:37;;;;;;;77.70;8.07;;;;;;;4.98;63.88;94045.88;6977965;28;20223;-75
2020/12/30 08:40:06;;;;;;;218.87;12.57;;;;;;;4.95;63.56;94051.38;6971295;28;20680;-75
2020/12/30 08:43:35;;;;;;;150.13;10.00;;;;;;;5.11;63.82;94052.56;6985307;28;20230;-75
2020/12/30 08:47:00;;;;;;;128.10;10.13;;;;;;;5.47;63.36;94061.69;6980700;28;20423;-76
2020/12/30 08:50:23;;;;;;;248.67;11.67;;;;;;;5.54;62.84;94065.44;6986149;28;20210;-75
2020/12/30 08:53:43;;;;;;;222.13;10.67;;;;;;;5.47;62.32;94071.38;6983760;28;20205;-76
2020/12/30 08:57:04;;;;;;;116.50;8.97;;;;;;;5.49;62.41;94079.97;6965387;28;20216;-76
2020/12/30 09:00:26;;;;;;;75.97;10.23;;;;;;;5.51;62.57;94078.88;6978529;28;20210;-78
2020/12/30 09:03:47;;;;;;;60.47;10.80;;;;;;;5.67;62.49;94086.25;6972960;28;20265;-77
2020/12/30 09:07:10;;;;;;;79.47;10.23;;;;;;;5.88;62.58;94086.19;6982062;28;20218;-77
2020/12/30 09:10:33;;;;;;;120.47;7.90;;;;;;;6.16;62.27;94087.19;6986681;28;20215;-77
2020/12/30 09:13:53;;;;;;;23.53;6.23;;;;;;;6.41;61.85;94090.09;6986163;28;20211;-77
2020/12/30 09:17:15;;;;;;;9.10;4.37;;;;;;;6.79;61.67;94091.06;6976290;28;20269;-76
2020/12/30 09:20:35;;;;;;;3.63;3.33;;;;;;;7.47;61.39;94086.38;6971946;28;20293;-78
2020/12/30 09:23:56;;;;;;;4.10;3.70;;;;;;;8.45;60.26;94087.31;6997050;28;20609;-79
2020/12/30 09:27:21;;;;;;;2.57;2.37;;;;;;;10.02;58.88;94089.75;6991002;28;20219;-78
2020/12/30 09:30:42;;;;;;;2.10;1.90;;;;;;;10.51;55.86;94086.25;7005752;28;20217;-78
2020/12/30 09:34:02;;;;;;;2.40;2.20;;;;;;;10.49;54.05;94096.22;6973534;28;20212;-76
2020/12/30 09:37:22;;;;;;;2.10;1.93;;;;;;;10.29;53.40;94100.16;6994083;28;20675;-76
2020/12/30 09:40:45;;;;;;;4.20;2.67;;;;;;;10.08;53.33;94108.53;6991066;28;20208;-76
2020/12/30 09:44:09;;;;;;;2.87;2.67;;;;;;;9.81;53.45;94109.56;6983509;28;20227;-75
2020/12/30 09:47:29;;;;;;;25.10;3.70;;;;;;;9.52;52.84;94113.56;7019380;28;20700;-75
2020/12/30 09:50:51;;;;;;;394.70;17.37;;;;;;;8.86;52.58;94117.59;7002371;28;20211;-75
2020/12/30 09:54:15;;;;;;;75.47;8.87;;;;;;;8.23;53.90;94122.13;7007221;28;20220;-75
2020/12/30 09:57:35;;;;;;;132.23;12.00;;;;;;;7.80;54.53;94137.78;7006002;28;20212;-74
2020/12/30 10:01:01;;;;;;;26.47;17.60;;;;;;;7.67;55.43;94135.50;7015847;27;20238;-74
2020/12/30 10:04:24;;;;;;;12.20;8.90;;;;;;;7.60;56.02;94137.88;7012513;28;20228;-74
2020/12/30 10:07:47;;;;;;;6.97;6.07;;;;;;;7.59;56.94;94132.78;7017844;28;20346;-74
2020/12/30 10:11:08;;;;;;;6.20;4.07;;;;;;;7.60;56.97;94127.31;7016974;28;20614;-74
2020/12/30 10:14:28;;;;;;;5.30;3.80;;;;;;;7.50;56.42;94128.34;7019264;28;20729;-75
2020/12/30 10:17:48;;;;;;;3.67;3.37;;;;;;;7.39;56.81;94129.38;6994017;28;20207;-74
2020/12/30 10:21:11;;;;;;;5.47;4.60;;;;;;;7.42;56.96;94134.34;7041081;27;22098;-75
2020/12/30 10:24:34;;;;;;;4.07;3.67;;;;;;;7.47;57.55;94131.28;7018073;28;20386;-76
2020/12/30 10:27:55;;;;;;;4.50;4.10;;;;;;;7.65;57.64;94133.00;7023553;28;20245;-76
2020/12/30 10:31:19;;;;;;;4.70;4.20;;;;;;;7.76;57.67;94134.63;7015928;28;20237;-76
2020/12/30 10:34:40;;;;;;;4.83;4.23;;;;;;;7.98;57.99;94128.97;6997699;28;20222;-76
2020/12/30 10:38:00;;;;;;;5.07;3.30;;;;;;;8.25;57.23;94125.44;6977395;28;20234;-75
2020/12/30 10:41:23;;;;;;;3.63;3.20;;;;;;;8.40;56.44;94129.25;6985186;28;20330;-74
2020/12/30 10:44:44;;;;;;;7.90;7.10;;;;;;;8.41;55.74;94135.38;6970590;28;20317;-75
2020/12/30 10:48:04;;;;;;;6.27;5.60;;;;;;;8.48;56.10;94139.09;6976748;28;20253;-75
2020/12/30 10:51:24;;;;;;;6.50;5.47;;;;;;;8.55;55.94;94137.53;6985876;28;20211;-76
2020/12/30 10:54:45;;;;;;;8.70;5.83;;;;;;;8.58;56.20;94138.03;6957887;28;20210;-74
2020/12/30 10:58:05;;;;;;;8.33;6.83;;;;;;;8.55;56.41;94133.03;7024320;28;20217;-76
2020/12/30 11:01:26;;;;;;;5.53;5.03;;;;;;;8.50;55.91;94140.59;6996546;28;20226;-75
2020/12/30 11:04:48;;;;;;;6.00;5.17;;;;;;;8.43;56.07;94142.19;7012891;27;20244;-75
2020/12/30 11:08:11;;;;;;;4.47;4.07;;;;;;;8.38;56.57;94155.03;6982618;28;20249;-75
2020/12/30 11:11:32;;;;;;;2.57;2.20;;;;;;;8.38;56.52;94152.41;7011012;28;20206;-75
2020/12/30 11:14:52;;;;;;;2.70;2.50;;;;;;;8.34;56.95;94152.84;6990729;28;20219;-75
2020/12/30 11:18:13;;;;;;;2.60;2.37;;;;;;;8.22;57.51;94151.34;7002346;28;20218;-74
2020/12/30 11:21:33;;;;;;;2.10;1.90;;;;;;;8.13;57.20;94153.91;6993720;28;20707;-74
2020/12/30 11:24:54;;;;;;;2.47;1.70;;;;;;;8.05;57.62;94159.09;7004971;28;20222;-74
2020/12/30 11:28:14;;;;;;;1.37;1.13;;;;;;;8.09;57.41;94152.56;7012405;28;20215;-75
2020/12/30 11:31:37;;;;;;;3.03;2.57;;;;;;;8.04;57.28;94157.44;7005297;28;20622;-74
2020/12/30 11:34:57;;;;;;;6.47;5.77;;;;;;;7.78;57.55;94158.28;7000091;28;20222;-75
2020/12/30 11:38:17;;;;;;;5.60;5.10;;;;;;;7.48;57.97;94151.44;6985693;28;20354;-74
2020/12/30 11:41:38;;;;;;;11.03;8.97;;;;;;;7.22;58.13;94143.31;7013174;28;20225;-75
2020/12/30 11:44:58;;;;;;;25.87;19.77;;;;;;;6.97;58.71;94142.13;6989721;28;20788;-73
2020/12/30 11:48:19;;;;;;;13.87;12.00;;;;;;;6.88;59.61;94143.81;6976386;28;20246;-75
2020/12/30 11:51:42;;;;;;;14.20;12.80;;;;;;;6.92;59.77;94144.34;6984022;28;20213;-74
2020/12/30 11:55:03;;;;;;;12.07;10.87;;;;;;;6.93;60.15;94137.25;6974563;28;20226;-74
2020/12/30 11:58:24;;;;;;;10.00;8.77;;;;;;;7.02;60.41;94142.53;6990597;28;20823;-74
2020/12/30 12:01:46;;;;;;;15.50;12.83;;;;;;;7.17;60.38;94145.53;7000086;28;20266;-73
2020/12/30 12:05:11;;;;;;;8.67;6.27;;;;;;;7.24;60.21;94144.81;7008482;28;20245;-73
2020/12/30 12:08:31;;;;;;;6.27;5.57;;;;;;;7.37;60.07;94151.59;6985148;28;20203;-74
2020/12/30 12:11:52;;;;;;;4.60;4.10;;;;;;;7.48;60.40;94149.63;6993599;28;20594;-74
2020/12/30 12:15:13;;;;;;;3.63;3.00;;;;;;;7.53;59.84;94154.47;6988406;28;20225;-74
2020/12/30 12:18:33;;;;;;;2.60;2.23;;;;;;;7.53;59.34;94155.31;7025659;28;20217;-74
2020/12/30 12:21:56;;;;;;;2.80;2.20;;;;;;;7.59;59.82;94157.38;6992024;28;20582;-74
2020/12/30 12:25:17;;;;;;;2.53;1.50;;;;;;;7.64;59.39;94163.06;7004892;28;20214;-74
2020/12/30 12:28:59;;;;;;;2.47;1.57;;;;;;;7.66;58.81;94161.09;7007656;28;20213;-73
2020/12/30 12:32:27;;;;;;;2.03;1.43;;;;;;;7.66;59.15;94165.53;7030926;28;20209;-74
2020/12/30 12:35:47;;;;;;;2.07;1.80;;;;;;;7.65;58.73;94162.06;7016675;28;20224;-74
2020/12/30 12:39:10;;;;;;;3.50;2.43;;;;;;;7.57;58.59;94167.25;7008787;28;20210;-75
2020/12/30 12:42:30;;;;;;;4.07;1.90;;;;;;;7.68;58.41;94174.16;7018947;28;20256;-73
2020/12/30 12:45:50;;;;;;;2.90;1.80;;;;;;;7.80;58.53;94174.78;7016767;28;20222;-76
2020/12/30 12:49:12;;;;;;;3.23;1.70;;;;;;;7.98;58.30;94175.69;7030102;28;20295;-74
2020/12/30 12:52:34;;;;;;;1.93;1.50;;;;;;;8.13;58.15;94172.41;7019638;28;20280;-75
2020/12/30 12:55:55;;;;;;;1.80;1.70;;;;;;;8.22;58.04;94180.44;7000679;28;20289;-75
2020/12/30 12:59:17;;;;;;;1.90;1.80;;;;;;;8.32;58.98;94183.88;7020492;28;20202;-75
2020/12/30 13:02:38;;;;;;;1.50;1.40;;;;;;;8.22;58.64;94185.72;7025744;28;20368;-75
2020/12/30 13:05:58;;;;;;;2.40;2.20;;;;;;;8.07;59.88;94188.03;7020291;28;20209;-75
2020/12/30 13:09:21;;;;;;;1.93;1.73;;;;;;;7.93;59.72;94193.81;7018778;28;20221;-76
2020/12/30 13:12:43;;;;;;;2.03;1.70;;;;;;;7.74;60.16;94192.91;7011254;28;20232;-76
2020/12/30 13:16:08;;;;;;;1.73;1.40;;;;;;;7.61;60.36;94192.41;7002796;28;20280;-76
2020/12/30 13:19:28;;;;;;;1.40;1.30;;;;;;;7.43;59.30;94195.94;7009480;28;20255;-76
2020/12/30 13:22:49;;;;;;;1.77;1.30;;;;;;;7.29;59.86;94190.09;6998681;28;20234;-75
2020/12/30 13:26:11;;;;;;;1.63;1.40;;;;;;;7.27;60.31;94200.00;7021136;28;20244;-76
2020/12/30 13:29:32;;;;;;;2.10;1.60;;;;;;;7.06;59.87;94203.78;7032550;28;20223;-75
2020/12/30 13:32:52;;;;;;;1.00;1.00;;;;;;;7.02;60.18;94202.38;7044180;27;20222;-75
2020/12/30 13:36:24;;;;;;;1.40;1.30;;;;;;;6.87;60.44;94218.66;7026469;28;20219;-75
2020/12/30 13:39:44;;;;;;;1.63;1.50;;;;;;;6.91;61.39;94213.91;7016437;28;20220;-76
2020/12/30 13:43:07;;;;;;;1.53;1.40;;;;;;;6.95;60.32;94220.56;7009388;28;20288;-76
2020/12/30 13:46:28;;;;;;;1.53;1.43;;;;;;;6.93;60.60;94222.53;7007387;28;20276;-75
2020/12/30 13:49:48;;;;;;;1.63;1.20;;;;;;;6.93;59.82;94227.81;6995339;28;20642;-76
2020/12/30 13:53:09;;;;;;;1.43;1.33;;;;;;;6.95;59.94;94230.31;6992486;28;20256;-77
2020/12/30 13:56:30;;;;;;;1.23;1.00;;;;;;;6.91;60.46;94235.03;6995962;28;20215;-76
2020/12/30 13:59:50;;;;;;;1.20;1.10;;;;;;;6.90;60.18;94239.47;7004082;28;20248;-76
2020/12/30 14:03:10;;;;;;;1.60;1.50;;;;;;;6.96;60.71;94250.44;7002611;28;20298;-76
2020/12/30 14:06:31;;;;;;;1.30;1.20;;;;;;;7.03;60.92;94246.28;7012180;27;20747;-76
2020/12/30 14:09:53;;;;;;;1.13;1.10;;;;;;;7.01;59.83;94254.34;6970105;28;20241;-77
2020/12/30 14:13:14;;;;;;;1.40;1.30;;;;;;;7.13;60.48;94250.59;7020000;28;20232;-76
2020/12/30 14:16:34;;;;;;;1.10;1.00;;;;;;;7.24;59.85;94258.34;6996093;28;20213;-76
2020/12/30 14:19:55;;;;;;;2.40;1.50;;;;;;;7.43;60.35;94259.31;6992100;28;20225;-77
2020/12/30 14:23:17;;;;;;;1.30;1.20;;;;;;;7.56;59.63;94260.69;7000606;28;20223;-77
2020/12/30 14:26:38;;;;;;;1.60;1.13;;;;;;;7.63;59.12;94258.31;6990629;28;20236;-77
2020/12/30 14:29:59;;;;;;;1.30;1.20;;;;;;;7.72;59.22;94273.31;7001801;28;20628;-76
2020/12/30 14:33:19;;;;;;;1.40;1.30;;;;;;;7.74;58.94;94276.66;7002362;28;20341;-76
2020/12/30 14:36:44;;;;;;;2.20;1.20;;;;;;;7.72;58.18;94275.94;6999386;28;20244;-76
2020/12/30 14:40:06;;;;;;;1.13;1.03;;;;;;;7.70;58.56;94277.88;6976430;28;20352;-76
2020/12/30 14:43:29;;;;;;;3.20;2.90;;;;;;;7.64;58.73;94281.94;6982489;28;20226;-77
2020/12/30 14:46:49;;;;;;;1.17;0.97;;;;;;;7.60;58.58;94283.19;7005705;28;20225;-76
2020/12/30 14:50:09;;;;;;;1.50;1.00;;;;;;;7.58;58.55;94295.72;6995338;28;20214;-77
2020/12/30 14:53:34;;;;;;;0.83;0.83;;;;;;;7.52;58.65;94301.56;6999056;28;20272;-75
2020/12/30 14:56:58;;;;;;;1.67;1.33;;;;;;;7.50;58.99;94300.84;6988906;28;20237;-77
2020/12/30 15:00:18;;;;;;;1.87;1.57;;;;;;;7.42;58.57;94298.09;6986848;28;20256;-77
2020/12/30 15:03:39;;;;;;;1.40;1.00;;;;;;;7.31;59.27;94306.16;6996100;28;20230;-76
2020/12/30 15:06:59;;;;;;;1.53;1.23;;;;;;;7.28;59.08;94315.22;6995413;28;20924;-76
2020/12/30 15:10:19;;;;;;;1.53;1.10;;;;;;;7.24;58.96;94320.91;6999887;28;20214;-76
2020/12/30 15:13:42;;;;;;;1.40;1.30;;;;;;;7.24;59.06;94318.28;7002750;28;20301;-77
2020/12/30 15:17:03;;;;;;;1.80;1.40;;;;;;;7.24;59.09;94324.34;6994972;28;20238;-76
2020/12/30 15:20:26;;;;;;;1.33;1.23;;;;;;;7.22;58.79;94322.84;6994641;28;20591;-75
2020/12/30 15:23:49;;;;;;;1.93;1.20;;;;;;;7.15;59.25;94327.84;7023834;28;20320;-76
2020/12/30 15:27:10;;;;;;;1.60;1.30;;;;;;;7.05;58.67;94334.06;7032342;28;20212;-76
2020/12/30 15:30:30;;;;;;;1.00;1.00;;;;;;;6.95;58.54;94333.22;7024763;28;20244;-75
2020/12/30 15:33:50;;;;;;;1.70;1.37;;;;;;;6.85;59.02;94339.31;7032341;28;20278;-76
2020/12/30 15:37:11;;;;;;;2.03;1.83;;;;;;;6.79;58.94;94339.88;7012624;28;20596;-75
2020/12/30 15:40:32;;;;;;;2.37;2.17;;;;;;;6.75;59.14;94340.28;7021734;28;20279;-76
2020/12/30 15:43:55;;;;;;;1.60;1.50;;;;;;;6.71;59.30;94347.63;7004030;28;20218;-76
2020/12/30 15:47:17;;;;;;;1.60;1.50;;;;;;;6.70;59.62;94351.22;7023333;27;20222;-78
2020/12/30 15:50:38;;;;;;;3.90;3.33;;;;;;;6.69;59.52;94364.59;6986654;28;20922;-78
2020/12/30 15:53:59;;;;;;;21.77;13.67;;;;;;;6.56;59.42;94359.53;6993739;28;20351;-75
2020/12/30 15:57:19;;;;;;;4.93;4.37;;;;;;;6.40;59.36;94360.03;6978450;28;20627;-76
2020/12/30 16:00:40;;;;;;;2.70;2.50;;;;;;;6.36;59.84;94370.97;7014427;28;20229;-75